Weather at Kanti Airport

Public forecast

Using degrees Celsius for public forecast. Weather courtesy of forecast.io.

Closest aviation weather report (METAR) to Kanti Airport

Report is more than 2 hours old.

Closest report is Dibrugarh Airport, 96.5 nm (178.7 km) NNW. Retrieved 2021/06/19 10:00 UTC (5 hours ago):

VEMN 191000Z 06006KT 6000 FEW025 SCT100 34/26 Q1001 NOSIG

Closest aviation forecast (TAF) to Kanti Airport

Forecast is more than 12 hours old.

Closest forecast is Jorhat Airport, 92.2 nm (170.7 km) WNW. Retrieved 2021/06/18 12:30 UTC (1 day ago):

TAF VEJT 180930Z 1812/1824 30005KT 6000 SCT025 FEW025TCU SCT090 BKN250 TEMPO 1815/1819 3000 TSRA TEMPO 1820/1824 4000 TSRA TAF VILH 180930Z 1818/1912 25005KT 6000 SCT050 BKN100 BECMG 1902/1903 SCT060 SCT100 TEMPO 1910/1912 29015G25KT